Time;durP1;ratioP1;P1;durP2;ratioP2;P2;SDS_P1;SDS_P2;PMS_P1;PMS_P2;Temp;Humidity;BMP_temperature;BMP_pressure;BME280_temperature;BME280_humidity;BME280_pressure;Samples;Min_cycle;Max_cycle;Signal;HPM_P1;HPM_P2
2022/08/14 00:03:20;;;;;;;5.68;2.50;;;21.60;68.50;;;;;;8424255;28;20048;-77
2022/08/14 00:07:22;;;;;;;4.05;2.33;;;21.40;69.40;;;;;;8410003;28;20056;-77
2022/08/14 00:11:24;;;;;;;5.75;2.80;;;21.40;69.20;;;;;;8418918;28;20048;-77
2022/08/14 00:15:33;;;;;;;14.20;2.92;;;21.30;69.90;;;;;;8426127;28;20044;-77
2022/08/14 00:19:36;;;;;;;5.00;2.63;;;21.40;69.80;;;;;;8419426;28;20092;-76
2022/08/14 00:23:40;;;;;;;3.95;2.20;;;21.40;70.10;;;;;;8408506;28;20049;-78
2022/08/14 00:27:42;;;;;;;4.00;2.58;;;21.30;70.50;;;;;;8412915;28;20037;-77
2022/08/14 00:31:44;;;;;;;3.92;2.40;;;21.10;70.60;;;;;;8421712;28;20047;-77
2022/08/14 00:35:47;;;;;;;5.18;2.63;;;21.10;71.10;;;;;;8419947;28;20040;-76
2022/08/14 00:39:49;;;;;;;4.38;2.47;;;21.10;71.10;;;;;;8411963;28;20048;-76
2022/08/14 00:43:51;;;;;;;4.07;2.60;;;21.10;71.30;;;;;;8404183;28;20130;-77
2022/08/14 00:47:54;;;;;;;3.78;2.40;;;20.90;71.20;;;;;;8417966;28;20054;-78
2022/08/14 00:51:59;;;;;;;6.20;2.45;;;20.80;71.40;;;;;;8422100;28;20047;-77
2022/08/14 00:56:01;;;;;;;4.18;2.40;;;20.60;72.00;;;;;;8424386;28;20036;-78
2022/08/14 01:00:09;;;;;;;7.32;2.35;;;20.30;72.60;;;;;;8423517;28;20059;-76
2022/08/14 01:04:12;;;;;;;4.47;2.70;;;19.80;74.00;;;;;;8422156;28;20048;-75
2022/08/14 01:08:18;;;;;;;5.20;2.72;;;19.80;74.30;;;;;;8410601;28;20044;-79
2022/08/14 01:12:22;;;;;;;6.32;2.70;;;19.80;73.30;;;;;;8420160;28;21690;-77
2022/08/14 01:16:24;;;;;;;5.72;2.85;;;19.80;73.90;;;;;;8410159;28;20129;-79
2022/08/14 01:24:48;;;;;;;4.50;3.15;;;19.80;74.90;;;;;;8414099;28;20182;-74
2022/08/14 01:28:54;;;;;;;5.15;3.15;;;19.90;74.10;;;;;;8415292;28;20450;-76
2022/08/14 01:32:56;;;;;;;5.15;3.03;;;19.80;74.20;;;;;;8422665;28;20071;-79
2022/08/14 01:37:00;;;;;;;4.72;3.30;;;19.70;74.60;;;;;;8424031;28;20051;-78
2022/08/14 01:41:08;;;;;;;4.40;3.08;;;19.50;74.80;;;;;;8419380;28;20040;-79
2022/08/14 01:45:12;;;;;;;5.25;3.10;;;19.40;75.80;;;;;;8407244;28;20060;-79
2022/08/14 01:49:15;;;;;;;6.20;3.33;;;19.40;76.60;;;;;;8411826;28;20064;-77
2022/08/14 01:53:18;;;;;;;6.18;2.88;;;19.50;77.00;;;;;;8407065;28;20044;-79
2022/08/14 01:57:22;;;;;;;5.80;2.70;;;19.60;76.10;;;;;;8421326;28;20064;-79
2022/08/14 02:01:25;;;;;;;5.88;2.90;;;19.40;76.50;;;;;;8417373;28;20045;-76
2022/08/14 02:05:30;;;;;;;5.22;3.00;;;19.40;77.10;;;;;;8420120;28;20052;-77
2022/08/14 02:09:36;;;;;;;6.03;3.10;;;19.50;76.80;;;;;;8418921;28;20044;-77
2022/08/14 02:13:42;;;;;;;5.05;2.90;;;19.40;76.70;;;;;;8423107;28;20043;-77
2022/08/14 02:17:45;;;;;;;4.07;2.65;;;19.30;77.60;;;;;;8422712;28;20136;-76
2022/08/14 02:21:53;;;;;;;8.90;3.00;;;19.30;77.50;;;;;;8418011;28;20036;-77
2022/08/14 02:25:55;;;;;;;5.10;2.60;;;19.30;77.70;;;;;;8420501;28;20135;-77
2022/08/14 02:29:59;;;;;;;5.15;2.97;;;19.20;78.20;;;;;;8429069;28;20409;-75
2022/08/14 02:34:05;;;;;;;4.30;2.83;;;18.80;78.70;;;;;;8407885;28;20043;-77
2022/08/14 02:38:08;;;;;;;4.97;3.30;;;18.80;79.00;;;;;;8425959;28;20043;-79
2022/08/14 02:42:15;;;;;;;5.10;3.00;;;18.50;79.90;;;;;;8421224;28;20048;-77
2022/08/14 02:46:20;;;;;;;5.85;3.85;;;18.40;81.20;;;;;;8416614;28;20474;-77
2022/08/14 02:50:23;;;;;;;6.68;3.90;;;18.50;79.90;;;;;;8421788;28;20052;-77
2022/08/14 02:54:26;;;;;;;4.95;3.20;;;18.60;80.10;;;;;;8427297;28;20056;-78
2022/08/14 02:58:29;;;;;;;4.47;3.25;;;18.60;80.10;;;;;;8422206;28;20433;-77
2022/08/14 03:02:34;;;;;;;4.90;3.20;;;18.50;81.70;;;;;;8425474;28;20044;-76
2022/08/14 03:06:37;;;;;;;6.20;3.20;;;18.70;81.40;;;;;;8417496;28;20101;-78
2022/08/14 03:10:39;;;;;;;4.72;3.28;;;18.50;80.70;;;;;;8422943;28;20486;-76
2022/08/14 03:14:45;;;;;;;4.85;3.20;;;18.30;81.60;;;;;;8416009;28;20478;-79
2022/08/14 03:18:52;;;;;;;5.30;3.40;;;18.20;82.20;;;;;;8419382;28;20040;-79
2022/08/14 03:22:54;;;;;;;4.72;3.13;;;18.30;82.50;;;;;;8427064;28;20051;-78
2022/08/14 03:26:57;;;;;;;5.45;3.33;;;18.30;82.70;;;;;;8398617;28;20083;-78
2022/08/14 03:30:59;;;;;;;5.32;3.38;;;18.30;82.20;;;;;;8412510;28;20127;-76
2022/08/14 03:35:03;;;;;;;4.47;3.10;;;18.20;82.40;;;;;;8412912;28;20394;-76
2022/08/14 03:39:07;;;;;;;4.18;2.97;;;18.20;82.90;;;;;;8426950;28;20052;-78
2022/08/14 03:43:11;;;;;;;5.40;3.28;;;18.20;82.70;;;;;;8416965;28;20044;-78
2022/08/14 03:47:13;;;;;;;5.70;3.63;;;18.20;82.80;;;;;;8406151;28;20596;-77
2022/08/14 03:51:16;;;;;;;4.30;3.08;;;18.10;83.00;;;;;;8423516;28;20048;-77
2022/08/14 03:55:18;;;;;;;4.80;3.35;;;18.10;83.40;;;;;;8419670;28;20077;-78
2022/08/14 03:59:20;;;;;;;6.45;3.40;;;17.90;83.70;;;;;;8426871;28;20048;-77
2022/08/14 04:03:23;;;;;;;4.50;3.15;;;18.00;83.70;;;;;;8422725;28;20457;-76
2022/08/14 04:07:26;;;;;;;4.20;2.80;;;18.00;83.80;;;;;;8423923;28;20414;-77
2022/08/14 04:11:29;;;;;;;5.22;2.70;;;17.90;83.80;;;;;;8413955;28;20044;-78
2022/08/14 04:15:31;;;;;;;5.53;3.30;;;17.80;83.80;;;;;;8426226;28;20080;-77
2022/08/14 04:19:33;;;;;;;5.97;3.47;;;17.70;84.30;;;;;;8425548;28;20048;-76
2022/08/14 04:23:37;;;;;;;4.30;3.00;;;17.60;84.90;;;;;;8418511;28;20474;-77
2022/08/14 04:27:40;;;;;;;4.45;3.30;;;17.70;84.70;;;;;;8409236;28;20398;-76
2022/08/14 04:31:42;;;;;;;4.88;3.30;;;17.70;85.00;;;;;;8434404;28;20040;-76
2022/08/14 04:35:44;;;;;;;6.05;3.20;;;17.70;84.60;;;;;;8427782;28;20040;-77
2022/08/14 04:44:07;;;;;;;4.90;3.28;;;17.60;85.00;;;;;;8322481;28;20458;-77
2022/08/14 04:48:14;;;;;;;6.47;3.30;;;17.40;85.70;;;;;;8314890;28;20046;-77
2022/08/14 04:52:16;;;;;;;7.35;3.20;;;17.30;86.40;;;;;;8318595;28;20049;-76
2022/08/14 04:56:23;;;;;;;6.32;3.70;;;17.20;87.20;;;;;;8316997;28;20046;-77
2022/08/14 05:00:26;;;;;;;5.20;3.50;;;17.30;87.60;;;;;;8318662;28;20519;-78
2022/08/14 05:04:28;;;;;;;4.93;3.38;;;17.40;88.00;;;;;;8325952;28;20137;-76
2022/08/14 05:08:31;;;;;;;7.10;3.40;;;17.60;87.50;;;;;;8331691;28;20412;-77
2022/08/14 05:12:38;;;;;;;6.22;3.40;;;17.60;87.50;;;;;;8320040;28;20399;-78
2022/08/14 05:16:40;;;;;;;5.38;3.40;;;17.50;88.00;;;;;;8323296;28;20049;-79
2022/08/14 05:20:45;;;;;;;6.05;3.28;;;17.60;87.80;;;;;;8313165;28;20045;-75
2022/08/14 05:24:49;;;;;;;6.13;3.63;;;17.70;88.20;;;;;;8312716;28;20045;-73
2022/08/14 05:28:52;;;;;;;6.45;3.88;;;17.70;88.20;;;;;;8313039;28;20496;-74
2022/08/14 05:32:55;;;;;;;5.00;3.42;;;17.50;88.80;;;;;;8314497;28;20038;-73
2022/08/14 05:36:57;;;;;;;5.18;3.50;;;17.50;89.30;;;;;;8318517;28;20068;-75
2022/08/14 05:41:02;;;;;;;5.20;3.50;;;17.70;88.90;;;;;;8310229;28;20048;-75
2022/08/14 05:45:08;;;;;;;5.57;3.35;;;17.80;89.20;;;;;;8301845;28;20140;-77
2022/08/14 05:49:10;;;;;;;6.00;3.28;;;17.90;87.70;;;;;;8305904;28;20100;-75
2022/08/14 05:53:12;;;;;;;5.50;3.17;;;18.00;87.80;;;;;;8318842;28;20077;-76
2022/08/14 05:57:14;;;;;;;5.03;3.45;;;18.20;88.00;;;;;;8312528;28;20049;-73
2022/08/14 06:01:18;;;;;;;5.10;3.53;;;18.30;87.30;;;;;;8315145;28;20053;-77
2022/08/14 06:05:20;;;;;;;5.70;3.55;;;18.10;87.30;;;;;;8313520;28;20050;-76
2022/08/14 06:09:22;;;;;;;5.30;3.65;;;18.10;86.80;;;;;;8319905;28;20058;-76
2022/08/14 06:13:24;;;;;;;6.03;3.67;;;18.20;86.30;;;;;;8321729;28;20064;-77
2022/08/14 06:17:28;;;;;;;4.40;3.13;;;18.30;85.80;;;;;;8314209;28;20041;-76
2022/08/14 06:21:30;;;;;;;4.88;3.50;;;18.40;86.20;;;;;;8311442;28;20042;-73
2022/08/14 06:25:32;;;;;;;7.43;3.80;;;18.60;85.70;;;;;;8307250;28;20060;-72
2022/08/14 06:29:37;;;;;;;4.60;3.58;;;18.60;85.20;;;;;;8314326;28;20042;-72
2022/08/14 06:33:40;;;;;;;5.80;3.63;;;18.70;84.50;;;;;;8306152;28;20074;-72
2022/08/14 06:37:44;;;;;;;6.20;3.60;;;18.80;84.60;;;;;;8313072;28;20049;-73
2022/08/14 06:41:46;;;;;;;6.50;3.55;;;19.00;84.70;;;;;;8314645;28;20049;-72
2022/08/14 06:45:50;;;;;;;5.35;3.22;;;19.10;82.70;;;;;;8314422;28;20472;-73
2022/08/14 06:49:53;;;;;;;6.30;3.60;;;19.10;81.90;;;;;;8311032;28;20049;-75
2022/08/14 06:53:55;;;;;;;6.25;3.58;;;19.00;81.90;;;;;;8316021;28;20042;-73
2022/08/14 06:57:57;;;;;;;6.07;3.30;;;19.10;82.40;;;;;;8321268;28;20045;-73
2022/08/14 07:06:22;;;;;;;6.15;3.22;;;19.50;82.20;;;;;;8314591;28;20191;-72
2022/08/14 07:10:24;;;;;;;4.47;3.17;;;19.70;81.70;;;;;;8307902;28;20139;-73
2022/08/14 07:14:26;;;;;;;5.68;3.17;;;19.80;82.40;;;;;;8304568;28;20048;-75
2022/08/14 07:18:33;;;;;;;5.18;3.42;;;19.90;83.80;;;;;;8307845;28;20049;-75
2022/08/14 07:22:37;;;;;;;5.82;3.53;;;20.00;82.70;;;;;;8305949;28;20046;-73
2022/08/14 07:26:40;;;;;;;5.63;3.33;;;20.50;80.80;;;;;;8305239;28;20509;-76
2022/08/14 07:30:43;;;;;;;5.28;3.20;;;20.40;79.50;;;;;;8308534;28;20055;-77
2022/08/14 07:34:45;;;;;;;4.93;2.85;;;20.40;78.40;;;;;;8323880;28;20042;-77
2022/08/14 07:38:48;;;;;;;5.93;3.45;;;20.30;78.40;;;;;;8303874;28;20104;-75
2022/08/14 07:42:50;;;;;;;4.70;3.30;;;20.30;76.90;;;;;;8299112;28;20046;-77
2022/08/14 07:46:53;;;;;;;8.48;4.78;;;20.30;78.10;;;;;;8306538;28;20137;-76
2022/08/14 07:50:55;;;;;;;4.88;3.33;;;20.40;78.00;;;;;;8298401;28;20103;-75
2022/08/14 07:55:00;;;;;;;6.35;3.55;;;20.60;78.60;;;;;;8305378;28;20520;-73
2022/08/14 07:59:02;;;;;;;9.40;3.70;;;20.70;78.40;;;;;;8297915;28;20088;-75
2022/08/14 08:03:09;;;;;;;5.93;3.28;;;20.80;76.90;;;;;;8304016;28;20061;-75
2022/08/14 08:07:12;;;;;;;4.60;3.28;;;20.90;76.50;;;;;;8308881;28;20072;-76
2022/08/14 08:11:18;;;;;;;5.70;2.90;;;21.00;76.60;;;;;;8304632;28;20049;-74
2022/08/14 08:15:21;;;;;;;4.95;3.13;;;21.10;76.00;;;;;;8303185;28;20142;-74
2022/08/14 08:19:23;;;;;;;6.13;3.17;;;21.20;76.30;;;;;;8306885;28;20164;-76
2022/08/14 08:23:28;;;;;;;5.30;3.00;;;21.30;76.70;;;;;;8317606;28;20396;-75
2022/08/14 08:27:31;;;;;;;4.30;3.08;;;21.30;76.40;;;;;;8310085;28;20050;-75
2022/08/14 08:31:35;;;;;;;5.00;2.97;;;21.50;76.20;;;;;;8299859;28;20049;-73
2022/08/14 08:35:38;;;;;;;5.97;2.92;;;21.60;76.40;;;;;;8305864;28;20046;-74
2022/08/14 08:39:44;;;;;;;4.55;2.88;;;21.70;76.30;;;;;;8303028;28;20455;-74
2022/08/14 08:43:48;;;;;;;4.00;2.92;;;21.80;75.90;;;;;;8305365;28;20046;-75
2022/08/14 08:47:51;;;;;;;4.72;2.88;;;22.00;75.00;;;;;;8305650;28;20054;-75
2022/08/14 08:52:03;;;;;;;4.78;3.10;;;22.20;74.60;;;;;;8304212;28;20476;-74
2022/08/14 08:56:05;;;;;;;4.32;2.55;;;22.30;74.40;;;;;;8302584;28;20053;-75
2022/08/14 09:00:17;;;;;;;4.95;2.65;;;22.40;73.70;;;;;;8303037;28;20054;-75
2022/08/14 09:04:20;;;;;;;4.47;2.40;;;22.60;73.00;;;;;;8297885;28;20058;-73
2022/08/14 09:08:26;;;;;;;8.20;2.92;;;22.80;73.50;;;;;;8304758;28;20053;-73
2022/08/14 09:12:32;;;;;;;6.60;2.63;;;22.90;72.40;;;;;;8306754;28;20046;-71
2022/08/14 09:16:35;;;;;;;5.65;2.60;;;23.00;72.60;;;;;;8317720;28;20045;-73
2022/08/14 09:20:40;;;;;;;6.43;3.38;;;23.20;70.70;;;;;;8303317;28;20060;-74
2022/08/14 09:24:46;;;;;;;7.32;2.50;;;23.50;68.40;;;;;;8298795;28;20496;-73
2022/08/14 09:28:48;;;;;;;5.10;3.08;;;24.00;61.80;;;;;;8298125;28;20064;-71
2022/08/14 09:33:20;;;;;;;5.50;2.63;;;24.10;60.10;;;;;;8312355;28;20073;-73
2022/08/14 09:37:37;;;;;;;4.30;2.50;;;24.40;59.30;;;;;;8301602;28;20522;-72
2022/08/14 09:42:02;;;;;;;5.55;2.75;;;24.60;58.30;;;;;;8294838;28;20488;-72
2022/08/14 09:46:07;;;;;;;3.83;2.40;;;24.90;57.70;;;;;;8291329;28;20050;-71
2022/08/14 09:50:24;;;;;;;5.63;2.30;;;24.90;57.90;;;;;;8307998;28;20052;-73
2022/08/14 09:54:38;;;;;;;4.63;2.45;;;25.00;56.30;;;;;;8294138;28;20045;-73
2022/08/14 09:58:43;;;;;;;4.93;2.40;;;25.00;56.00;;;;;;8297711;28;20049;-73
2022/08/14 10:02:55;;;;;;;3.97;2.65;;;25.10;56.10;;;;;;8294061;28;20053;-72
2022/08/14 10:07:00;;;;;;;4.30;2.83;;;25.40;56.00;;;;;;8297231;28;20056;-73
2022/08/14 10:11:16;;;;;;;3.97;2.53;;;25.40;55.50;;;;;;8303429;28;20060;-72
2022/08/14 10:15:21;;;;;;;5.35;2.78;;;25.40;55.40;;;;;;8300423;28;20103;-71
2022/08/14 10:19:25;;;;;;;5.18;2.60;;;25.60;55.00;;;;;;8296764;28;20559;-71
2022/08/14 10:23:42;;;;;;;4.47;2.70;;;25.70;54.50;;;;;;8294716;28;20165;-72
2022/08/14 10:27:45;;;;;;;4.25;2.53;;;25.60;55.00;;;;;;8306684;28;20049;-73
2022/08/14 10:31:57;;;;;;;4.07;2.60;;;25.80;54.40;;;;;;8309570;28;20054;-73
2022/08/14 10:36:01;;;;;;;5.78;2.50;;;25.90;53.10;;;;;;8292958;28;20050;-76
2022/08/14 10:40:06;;;;;;;4.00;2.38;;;25.90;54.10;;;;;;8314732;28;20149;-75
2022/08/14 10:44:12;;;;;;;5.45;2.30;;;25.90;53.30;;;;;;8298081;28;20052;-76
2022/08/14 10:48:16;;;;;;;4.15;2.30;;;26.20;53.50;;;;;;8298487;28;20058;-74
2022/08/14 10:52:23;;;;;;;3.80;2.50;;;26.40;51.90;;;;;;8300788;28;20112;-75
2022/08/14 10:56:34;;;;;;;4.43;2.50;;;26.50;51.80;;;;;;8307968;28;20053;-74
2022/08/14 11:00:38;;;;;;;4.22;2.25;;;26.40;50.70;;;;;;8306697;28;20041;-75
2022/08/14 11:04:40;;;;;;;5.10;2.20;;;26.30;49.80;;;;;;8307929;28;20053;-76
2022/08/14 11:08:42;;;;;;;3.88;2.20;;;26.60;50.20;;;;;;8304731;28;20419;-74
2022/08/14 11:12:50;;;;;;;3.30;2.20;;;26.80;48.70;;;;;;8303096;28;20408;-75
2022/08/14 11:16:52;;;;;;;3.22;2.10;;;26.90;48.50;;;;;;8301390;28;20046;-72
2022/08/14 11:20:58;;;;;;;3.80;1.90;;;26.90;47.20;;;;;;8313951;28;20046;-77
2022/08/14 11:25:06;;;;;;;5.03;2.50;;;27.00;47.70;;;;;;8321090;28;20053;-78
2022/08/14 11:29:11;;;;;;;2.70;1.77;;;27.10;47.30;;;;;;8319943;28;20056;-77
2022/08/14 11:33:14;;;;;;;3.17;1.70;;;27.30;45.40;;;;;;8308713;28;20419;-78
2022/08/14 11:37:16;;;;;;;3.30;1.73;;;27.30;44.00;;;;;;8313312;28;20325;-75
2022/08/14 11:41:19;;;;;;;2.50;1.50;;;27.50;44.70;;;;;;8302240;28;20050;-77
2022/08/14 11:45:24;;;;;;;3.08;1.73;;;27.60;44.90;;;;;;8302083;28;20152;-77
2022/08/14 11:49:27;;;;;;;4.38;1.90;;;27.50;45.20;;;;;;8304141;28;20103;-77
2022/08/14 11:53:30;;;;;;;3.00;1.92;;;27.70;45.40;;;;;;8306541;28;20046;-74
2022/08/14 11:57:33;;;;;;;3.67;1.90;;;27.80;45.30;;;;;;8304834;28;20042;-75
2022/08/14 12:01:36;;;;;;;4.65;1.80;;;28.00;44.70;;;;;;8304749;28;20053;-75
2022/08/14 12:05:41;;;;;;;3.00;1.73;;;28.20;45.30;;;;;;8302498;28;20049;-74
2022/08/14 12:09:46;;;;;;;4.30;1.90;;;28.30;45.40;;;;;;8298899;28;20108;-74
2022/08/14 12:13:48;;;;;;;5.07;1.67;;;28.60;45.70;;;;;;8297290;28;20053;-76
2022/08/14 12:17:52;;;;;;;3.47;1.80;;;28.50;45.30;;;;;;8306320;28;20046;-75
2022/08/14 12:21:54;;;;;;;5.22;1.70;;;28.80;45.90;;;;;;8298976;28;20053;-77
2022/08/14 12:26:04;;;;;;;3.50;1.75;;;29.10;46.30;;;;;;8299711;28;20420;-75
2022/08/14 12:30:07;;;;;;;3.20;1.70;;;29.10;44.30;;;;;;8306309;28;20534;-74
2022/08/14 12:34:14;;;;;;;4.72;2.08;;;29.30;44.60;;;;;;8305846;28;20455;-78
2022/08/14 12:38:16;;;;;;;2.60;1.70;;;29.30;43.80;;;;;;8314651;28;20061;-76
2022/08/14 12:42:19;;;;;;;4.65;1.90;;;29.50;44.00;;;;;;8312684;28;20045;-76
2022/08/14 12:46:27;;;;;;;3.40;2.00;;;29.60;44.30;;;;;;8301856;28;20049;-76
2022/08/14 12:50:38;;;;;;;3.50;2.47;;;29.80;43.60;;;;;;8308463;28;20046;-76
2022/08/14 12:54:44;;;;;;;4.47;3.42;;;29.90;43.10;;;;;;8300496;28;20408;-81
2022/08/14 12:58:50;;;;;;;5.63;3.85;;;29.80;42.80;;;;;;8305406;28;20535;-77
2022/08/14 13:02:55;;;;;;;2.97;1.63;;;29.80;42.00;;;;;;8300444;28;20089;-76
2022/08/14 13:07:06;;;;;;;3.10;1.70;;;30.00;41.10;;;;;;8296948;28;20475;-78
2022/08/14 13:11:12;;;;;;;2.90;1.60;;;30.10;41.10;;;;;;8308222;28;20435;-75
2022/08/14 13:15:16;;;;;;;2.50;1.40;;;30.20;40.50;;;;;;8301752;28;20048;-78
2022/08/14 13:19:19;;;;;;;4.30;1.70;;;30.30;40.60;;;;;;8314215;28;20435;-78
2022/08/14 13:23:24;;;;;;;3.80;1.55;;;30.10;39.20;;;;;;8301268;28;20046;-77
2022/08/14 13:27:27;;;;;;;4.40;1.58;;;30.10;39.10;;;;;;8314885;28;20479;-79
2022/08/14 13:31:33;;;;;;;2.95;1.60;;;30.30;39.60;;;;;;8304480;28;20041;-77
2022/08/14 13:35:35;;;;;;;4.40;1.52;;;30.40;39.30;;;;;;8305926;28;20430;-76
2022/08/14 13:39:39;;;;;;;2.75;1.67;;;30.40;39.00;;;;;;8297395;28;20475;-77
2022/08/14 13:43:42;;;;;;;4.18;1.58;;;30.70;39.70;;;;;;8294278;28;20050;-79
2022/08/14 13:47:44;;;;;;;4.20;1.80;;;31.00;39.30;;;;;;8297826;28;20070;-77
2022/08/14 13:51:49;;;;;;;3.40;1.90;;;31.20;40.00;;;;;;8300215;28;20064;-77
2022/08/14 13:55:53;;;;;;;3.20;1.90;;;31.40;39.90;;;;;;8297586;28;20046;-76
2022/08/14 13:59:56;;;;;;;3.67;1.83;;;31.50;39.30;;;;;;8305410;28;20052;-79
2022/08/14 14:03:59;;;;;;;4.40;1.83;;;31.60;39.60;;;;;;8295446;28;20046;-77
2022/08/14 14:08:01;;;;;;;3.50;2.00;;;31.70;39.70;;;;;;8295438;28;20049;-78
2022/08/14 14:12:07;;;;;;;4.45;2.20;;;31.70;39.20;;;;;;8296187;28;20137;-77
2022/08/14 14:16:10;;;;;;;2.83;1.70;;;31.70;38.70;;;;;;8294119;28;20046;-77
2022/08/14 14:20:15;;;;;;;3.08;1.90;;;31.70;38.80;;;;;;8302287;28;20054;-78
2022/08/14 14:24:18;;;;;;;4.32;1.85;;;31.80;39.10;;;;;;8308173;28;20049;-78
2022/08/14 14:28:25;;;;;;;3.83;1.95;;;31.90;38.40;;;;;;8307132;28;20415;-76
2022/08/14 14:32:31;;;;;;;3.20;1.65;;;31.90;38.00;;;;;;8315321;28;20455;-75
2022/08/14 14:36:33;;;;;;;2.83;1.67;;;31.70;37.80;;;;;;8302847;28;20046;-77
2022/08/14 14:40:38;;;;;;;4.00;1.85;;;31.60;38.30;;;;;;8321778;28;20060;-76
2022/08/14 14:44:44;;;;;;;7.72;4.88;;;31.50;38.00;;;;;;8309127;28;20510;-75
2022/08/14 14:48:47;;;;;;;4.40;2.00;;;31.30;38.00;;;;;;8312992;28;20072;-78
2022/08/14 14:52:50;;;;;;;3.30;2.00;;;31.40;37.80;;;;;;8312888;28;20046;-74
2022/08/14 14:56:52;;;;;;;2.95;1.80;;;31.40;37.40;;;;;;8310783;28;20050;-76
2022/08/14 15:00:59;;;;;;;3.38;1.90;;;31.30;37.50;;;;;;8330795;28;20053;-77
2022/08/14 15:05:01;;;;;;;4.05;1.70;;;31.30;37.90;;;;;;8326224;28;20049;-77
2022/08/14 15:09:04;;;;;;;4.00;1.90;;;31.20;37.60;;;;;;8326902;28;20061;-77
2022/08/14 15:13:06;;;;;;;3.15;2.00;;;31.20;38.80;;;;;;8312472;28;20056;-75
2022/08/14 15:17:10;;;;;;;3.10;2.10;;;31.10;37.70;;;;;;8317630;28;20049;-75
2022/08/14 15:21:12;;;;;;;3.97;1.95;;;31.00;38.30;;;;;;8312072;28;20050;-76
2022/08/14 15:25:15;;;;;;;3.75;2.03;;;31.00;38.20;;;;;;8318978;28;20042;-78
2022/08/14 15:29:17;;;;;;;3.65;2.00;;;31.00;37.80;;;;;;8297461;28;20057;-77
2022/08/14 15:37:38;;;;;;;3.85;1.90;;;31.00;37.30;;;;;;8282636;28;20140;-78
2022/08/14 15:41:40;;;;;;;3.17;2.03;;;31.30;37.90;;;;;;8298635;28;20041;-77
2022/08/14 15:45:42;;;;;;;4.22;2.20;;;31.60;37.90;;;;;;8299759;28;20053;-77
2022/08/14 15:49:46;;;;;;;3.65;2.20;;;31.70;37.30;;;;;;8305296;28;20049;-75
2022/08/14 15:53:48;;;;;;;3.50;2.13;;;31.50;37.60;;;;;;8306398;28;20053;-79
2022/08/14 15:57:52;;;;;;;3.92;2.05;;;31.40;38.40;;;;;;8299618;28;20079;-76
2022/08/14 16:01:55;;;;;;;3.25;2.10;;;31.30;38.10;;;;;;8297782;28;20042;-76
2022/08/14 16:05:59;;;;;;;3.72;2.00;;;31.30;39.10;;;;;;8316031;28;20546;-76
2022/08/14 16:10:01;;;;;;;3.38;2.00;;;31.30;40.00;;;;;;8314775;28;20437;-77
2022/08/14 16:14:03;;;;;;;4.63;2.13;;;31.40;39.80;;;;;;8303678;28;20115;-78
2022/08/14 16:18:07;;;;;;;3.50;2.22;;;31.60;39.30;;;;;;8303831;28;20057;-78
2022/08/14 16:22:13;;;;;;;3.92;2.35;;;31.50;38.80;;;;;;8312888;28;20765;-76
2022/08/14 16:26:19;;;;;;;4.28;3.10;;;31.50;39.90;;;;;;8316791;28;20057;-76
2022/08/14 16:30:21;;;;;;;3.83;2.08;;;31.30;39.90;;;;;;8302301;28;20046;-77
2022/08/14 16:34:23;;;;;;;3.55;2.20;;;31.30;40.60;;;;;;8302178;28;20049;-75
2022/08/14 16:38:31;;;;;;;3.30;2.08;;;31.10;40.60;;;;;;8324904;28;20053;-80
2022/08/14 16:42:34;;;;;;;3.78;1.90;;;31.00;42.10;;;;;;8314587;28;20057;-75
2022/08/14 16:46:38;;;;;;;3.70;2.13;;;30.90;43.30;;;;;;8310747;28;20419;-78
2022/08/14 16:50:41;;;;;;;3.95;2.33;;;30.90;43.10;;;;;;8313513;28;20045;-77
2022/08/14 16:54:46;;;;;;;4.35;2.25;;;30.60;43.20;;;;;;8299503;28;20046;-76
2022/08/14 16:59:04;;;;;;;3.40;2.20;;;30.50;43.80;;;;;;8308576;28;20064;-76
2022/08/14 17:03:09;;;;;;;3.88;2.15;;;30.40;43.60;;;;;;8300566;28;20058;-78
2022/08/14 17:07:12;;;;;;;5.60;2.30;;;30.40;43.70;;;;;;8312888;28;20057;-77
2022/08/14 17:11:17;;;;;;;5.28;2.75;;;30.40;45.10;;;;;;8313025;28;20103;-78
2022/08/14 17:15:20;;;;;;;6.70;2.35;;;30.40;46.20;;;;;;8308263;28;20645;-78
2022/08/14 17:19:22;;;;;;;3.55;2.03;;;30.10;48.40;;;;;;8319898;28;20060;-80
2022/08/14 17:23:24;;;;;;;5.22;2.35;;;29.70;52.90;;;;;;8316514;28;20049;-79
2022/08/14 17:27:28;;;;;;;3.95;2.30;;;29.70;54.70;;;;;;8313070;28;20046;-79
2022/08/14 17:31:31;;;;;;;4.85;2.33;;;29.60;55.60;;;;;;8321528;28;20404;-77
2022/08/14 17:35:33;;;;;;;4.32;2.42;;;29.60;55.10;;;;;;8318139;28;20053;-79
2022/08/14 17:39:36;;;;;;;4.82;2.60;;;29.50;56.10;;;;;;8320344;28;20053;-77
2022/08/14 17:43:41;;;;;;;5.03;2.67;;;29.50;56.10;;;;;;8314553;28;20053;-75
2022/08/14 17:47:44;;;;;;;4.20;2.30;;;29.40;55.90;;;;;;8314689;28;20419;-77
2022/08/14 17:52:03;;;;;;;3.28;2.25;;;29.40;55.70;;;;;;8315563;28;20045;-79
2022/08/14 17:56:06;;;;;;;4.45;2.45;;;29.30;54.90;;;;;;8312968;28;20076;-75
2022/08/14 18:00:15;;;;;;;5.47;2.40;;;29.20;54.10;;;;;;8306808;28;20085;-77
2022/08/14 18:04:17;;;;;;;5.32;2.30;;;29.00;54.30;;;;;;8311280;28;20507;-75
2022/08/14 18:08:21;;;;;;;3.78;2.13;;;29.00;54.90;;;;;;8313204;28;20068;-76
2022/08/14 18:12:24;;;;;;;4.00;2.40;;;28.90;55.10;;;;;;8319757;28;20053;-78
2022/08/14 18:16:28;;;;;;;4.00;2.50;;;28.70;56.00;;;;;;8316721;28;20054;-78
2022/08/14 18:20:30;;;;;;;5.05;3.50;;;28.60;55.00;;;;;;8312256;28;20207;-76
2022/08/14 18:24:33;;;;;;;5.32;3.40;;;28.60;55.40;;;;;;8308019;28;20064;-75
2022/08/14 18:28:36;;;;;;;4.85;2.40;;;28.50;55.00;;;;;;8319307;28;20074;-76
2022/08/14 18:32:59;;;;;;;4.18;2.20;;;28.40;56.80;;;;;;8307316;28;20087;-76
2022/08/14 18:37:03;;;;;;;4.18;2.60;;;28.30;58.10;;;;;;8312291;28;20045;-76
2022/08/14 18:41:28;;;;;;;4.47;2.50;;;27.90;58.90;;;;;;8305082;28;20520;-76
2022/08/14 18:45:32;;;;;;;4.60;2.45;;;27.40;54.30;;;;;;8317084;28;20125;-78
2022/08/14 18:50:02;;;;;;;4.15;2.67;;;27.30;52.70;;;;;;8320421;28;20492;-76
2022/08/14 18:54:05;;;;;;;5.35;2.72;;;27.30;51.00;;;;;;8314335;28;20052;-77
2022/08/14 18:58:19;;;;;;;5.18;2.88;;;27.30;51.10;;;;;;8307143;28;20789;-76
2022/08/14 19:02:43;;;;;;;5.93;2.70;;;27.20;50.30;;;;;;8316257;28;20601;-76
2022/08/14 19:06:48;;;;;;;5.07;3.05;;;27.20;50.90;;;;;;8313812;28;20046;-74
2022/08/14 19:10:52;;;;;;;5.53;2.92;;;27.10;50.20;;;;;;8314733;28;20050;-77
2022/08/14 19:15:07;;;;;;;5.05;3.00;;;27.10;50.20;;;;;;8317830;28;20049;-78
2022/08/14 19:19:13;;;;;;;3.85;2.65;;;27.20;53.00;;;;;;8300649;28;20050;-77
2022/08/14 19:23:20;;;;;;;4.88;2.60;;;27.10;51.60;;;;;;8308513;28;20058;-76
2022/08/14 19:27:24;;;;;;;4.85;2.83;;;27.10;52.70;;;;;;8314307;28;20601;-77
2022/08/14 19:31:36;;;;;;;5.28;2.80;;;27.10;52.60;;;;;;8305540;28;20057;-78
2022/08/14 19:35:46;;;;;;;6.00;2.78;;;27.10;52.50;;;;;;8312666;28;20049;-72
2022/08/14 19:39:52;;;;;;;6.65;2.90;;;27.00;53.30;;;;;;8310488;28;20045;-77
2022/08/14 19:43:56;;;;;;;4.18;2.65;;;26.90;52.40;;;;;;8315287;28;20054;-75
2022/08/14 19:47:58;;;;;;;3.70;2.50;;;26.70;52.90;;;;;;8300079;28;20403;-77
2022/08/14 19:52:01;;;;;;;4.35;2.50;;;26.60;52.50;;;;;;8306620;28;20053;-77
2022/08/14 19:56:05;;;;;;;5.35;2.97;;;26.60;53.70;;;;;;8301140;28;20046;-78
2022/08/14 20:00:12;;;;;;;5.50;2.83;;;26.50;53.00;;;;;;8299949;28;20081;-80
2022/08/14 20:04:22;;;;;;;4.93;2.50;;;26.50;50.00;;;;;;8319305;28;20049;-77
2022/08/14 20:08:24;;;;;;;4.38;2.70;;;26.50;50.50;;;;;;8314808;28;20080;-75
2022/08/14 20:12:28;;;;;;;5.25;2.70;;;26.50;49.80;;;;;;8311285;28;20090;-77
2022/08/14 20:16:36;;;;;;;4.07;2.53;;;26.50;51.20;;;;;;8321410;28;20049;-76
2022/08/14 20:20:41;;;;;;;4.55;2.42;;;26.30;51.40;;;;;;8317543;28;20049;-77
2022/08/14 20:24:45;;;;;;;6.10;2.70;;;26.30;54.70;;;;;;8301085;28;20484;-77
2022/08/14 20:28:51;;;;;;;4.43;2.97;;;26.20;51.30;;;;;;8306714;28;20054;-77
2022/08/14 20:32:56;;;;;;;6.00;3.13;;;26.10;53.00;;;;;;8305461;28;20473;-76
2022/08/14 20:37:03;;;;;;;6.60;3.30;;;26.10;53.60;;;;;;8305522;28;20057;-76
2022/08/14 20:41:08;;;;;;;6.03;3.10;;;26.00;54.80;;;;;;8305824;28;20488;-77
2022/08/14 20:45:18;;;;;;;7.35;3.28;;;26.00;55.80;;;;;;8311177;28;20487;-78
2022/08/14 20:49:32;;;;;;;4.27;3.03;;;25.90;56.90;;;;;;8310383;28;20049;-76
2022/08/14 20:53:35;;;;;;;8.57;3.28;;;25.80;57.60;;;;;;8300194;28;20053;-76
2022/08/14 20:57:38;;;;;;;8.43;3.58;;;25.80;58.00;;;;;;8305890;28;20072;-76
2022/08/14 21:01:44;;;;;;;8.43;3.20;;;25.80;58.30;;;;;;8304540;28;20088;-76
2022/08/14 21:05:46;;;;;;;6.15;3.38;;;25.80;58.70;;;;;;8302904;28;20060;-77
2022/08/14 21:09:53;;;;;;;6.43;3.28;;;25.70;58.80;;;;;;8311353;28;20064;-76
2022/08/14 21:13:56;;;;;;;7.95;3.40;;;25.60;59.20;;;;;;8306171;28;20404;-76
2022/08/14 21:17:59;;;;;;;8.25;4.70;;;25.60;59.40;;;;;;8302800;28;20049;-75
2022/08/14 21:22:02;;;;;;;7.97;3.50;;;25.50;59.70;;;;;;8303959;28;20136;-75
2022/08/14 21:26:06;;;;;;;8.18;3.13;;;25.50;59.90;;;;;;8299742;28;20416;-77
2022/08/14 21:30:10;;;;;;;7.88;3.50;;;25.40;59.90;;;;;;8308613;28;20049;-77
2022/08/14 21:34:16;;;;;;;6.88;3.08;;;25.40;60.10;;;;;;8314910;28;20049;-78